createdAt,value
2018-01-08T00:01:40.911Z,16.10
2018-01-08T00:04:09.320Z,15.77
2018-01-08T00:06:37.641Z,17.30
2018-01-08T00:09:05.988Z,13.43
2018-01-08T00:11:34.318Z,14.30
2018-01-08T00:14:03.428Z,16.10
2018-01-08T00:16:32.505Z,17.60
2018-01-08T00:19:01.620Z,8.63
2018-01-08T00:21:29.978Z,18.17
2018-01-08T00:23:58.320Z,13.80
2018-01-08T00:26:26.633Z,17.00
2018-01-08T00:28:54.975Z,8.80
2018-01-08T00:31:23.279Z,16.03
2018-01-08T00:33:52.374Z,19.60
2018-01-08T00:36:20.712Z,17.23
2018-01-08T00:38:49.030Z,13.00
2018-01-08T00:41:17.357Z,16.40
2018-01-08T00:43:45.685Z,15.67
2018-01-08T00:46:14.028Z,15.30
2018-01-08T00:48:42.383Z,14.87
2018-01-08T00:51:10.739Z,20.73
2018-01-08T00:53:39.076Z,19.97
2018-01-08T00:56:07.433Z,16.80
2018-01-08T00:58:35.770Z,17.67
2018-01-08T01:01:04.099Z,15.57
2018-01-08T01:03:32.451Z,21.50
2018-01-08T01:06:01.544Z,14.13
2018-01-08T01:08:29.882Z,12.13
2018-01-08T01:10:58.199Z,13.53
2018-01-08T01:13:27.323Z,17.03
2018-01-08T01:15:55.644Z,16.80
2018-01-08T01:18:23.991Z,16.53
2018-01-08T01:20:52.297Z,13.40
2018-01-08T01:23:20.642Z,16.10
2018-01-08T01:25:48.960Z,15.47
2018-01-08T01:28:17.311Z,28.23
2018-01-08T01:30:45.618Z,18.03
2018-01-08T01:33:13.978Z,19.03
2018-01-08T01:35:42.319Z,18.70
2018-01-08T01:38:10.634Z,18.10
2018-01-08T01:40:38.986Z,18.33
2018-01-08T01:43:07.320Z,15.43
2018-01-08T01:45:35.693Z,20.60
2018-01-08T01:48:04.022Z,14.20
2018-01-08T01:50:32.361Z,19.53
2018-01-08T01:53:00.693Z,17.23
2018-01-08T01:55:29.045Z,17.70
2018-01-08T01:57:57.358Z,16.70
2018-01-08T02:00:25.690Z,15.97
2018-01-08T02:02:54.017Z,18.40
2018-01-08T02:05:22.415Z,19.67
2018-01-08T02:07:50.784Z,14.23
2018-01-08T02:10:19.108Z,18.73
2018-01-08T02:12:48.216Z,16.70
2018-01-08T02:15:16.541Z,11.20
2018-01-08T02:17:44.925Z,19.67
2018-01-08T02:20:13.229Z,21.43
2018-01-08T02:22:41.605Z,21.13
2018-01-08T02:25:10.707Z,20.83
2018-01-08T02:27:39.821Z,15.03
2018-01-08T02:30:08.138Z,19.90
2018-01-08T02:32:36.476Z,16.60
2018-01-08T02:35:04.804Z,16.67
2018-01-08T02:37:33.141Z,17.97
2018-01-08T02:40:01.489Z,20.17
2018-01-08T02:42:29.855Z,20.80
2018-01-08T02:44:58.187Z,17.07
2018-01-08T02:47:26.523Z,20.43
2018-01-08T02:49:54.857Z,15.17
2018-01-08T02:52:23.175Z,24.67
2018-01-08T02:54:51.537Z,19.70
2018-01-08T02:57:19.907Z,14.87
2018-01-08T02:59:48.231Z,15.60
2018-01-08T03:02:17.311Z,18.80
2018-01-08T03:04:45.641Z,17.47
2018-01-08T03:07:13.972Z,16.43
2018-01-08T03:09:42.311Z,17.47
2018-01-08T03:12:10.706Z,16.40
2018-01-08T03:14:39.034Z,20.50
2018-01-08T03:17:08.249Z,17.33
2018-01-08T03:19:36.570Z,20.00
2018-01-08T03:22:04.948Z,19.20
2018-01-08T03:24:33.272Z,17.57
2018-01-08T03:27:01.602Z,17.30
2018-01-08T03:29:29.922Z,22.00
2018-01-08T03:31:58.269Z,16.93
2018-01-08T03:34:26.617Z,22.07
2018-01-08T03:36:55.721Z,13.83
2018-01-08T03:39:24.122Z,16.23
2018-01-08T03:41:52.472Z,15.97
2018-01-08T03:44:20.800Z,12.00
2018-01-08T03:46:49.107Z,16.30
2018-01-08T03:49:17.503Z,20.37
2018-01-08T03:51:45.812Z,18.57
2018-01-08T03:54:14.156Z,21.47
2018-01-08T03:56:42.470Z,25.20
2018-01-08T03:59:10.810Z,20.87
2018-01-08T04:01:39.133Z,19.70
2018-01-08T04:04:07.471Z,20.57
2018-01-08T04:06:35.787Z,30.87
2018-01-08T04:09:04.113Z,16.20
2018-01-08T04:11:33.293Z,20.70
2018-01-08T04:14:02.400Z,23.00
2018-01-08T04:16:31.469Z,18.17
2018-01-08T04:19:00.600Z,21.70
2018-01-08T04:21:28.918Z,16.10
2018-01-08T04:23:57.217Z,14.30
2018-01-08T04:26:25.545Z,19.57
2018-01-08T04:28:53.847Z,20.67
2018-01-08T04:31:22.186Z,22.23
2018-01-08T04:33:51.261Z,14.80
2018-01-08T04:36:20.365Z,13.63
2018-01-08T04:38:49.439Z,18.23
2018-01-08T04:41:17.777Z,22.30
2018-01-08T04:43:46.084Z,20.77
2018-01-08T04:46:14.415Z,21.97
2018-01-08T04:48:43.494Z,24.10
2018-01-08T04:51:12.625Z,19.73
2018-01-08T04:53:40.936Z,20.80
2018-01-08T04:56:09.237Z,22.80
2018-01-08T04:58:37.579Z,18.23
2018-01-08T05:01:05.898Z,20.63
2018-01-08T05:03:34.994Z,19.73
2018-01-08T05:06:03.300Z,18.80
2018-01-08T05:08:31.632Z,25.40
2018-01-08T05:10:59.934Z,23.30
2018-01-08T05:13:29.035Z,21.67
2018-01-08T05:15:58.101Z,21.87
2018-01-08T05:18:26.446Z,21.47
2018-01-08T05:20:54.760Z,22.90
2018-01-08T05:23:23.081Z,18.13
2018-01-08T05:25:51.409Z,13.50
2018-01-08T05:28:19.716Z,24.70
2018-01-08T05:30:48.815Z,21.60
2018-01-08T05:33:17.886Z,17.00
2018-01-08T05:35:46.221Z,11.17
2018-01-08T05:38:14.533Z,22.03
2018-01-08T05:40:43.681Z,20.07
2018-01-08T05:43:11.999Z,26.00
2018-01-08T05:45:40.354Z,22.30
2018-01-08T05:48:08.674Z,19.77
2018-01-08T05:50:37.003Z,23.53
2018-01-08T05:53:06.089Z,22.27
2018-01-08T05:55:35.197Z,22.10
2018-01-08T05:58:03.521Z,16.97
2018-01-08T06:00:31.847Z,22.67
2018-01-08T06:03:00.204Z,23.80
2018-01-08T06:05:29.277Z,16.83
2018-01-08T06:07:57.596Z,23.10
2018-01-08T06:10:25.918Z,24.57
2018-01-08T06:12:54.248Z,21.93
2018-01-08T06:15:23.329Z,36.20
2018-01-08T06:17:52.441Z,31.20
2018-01-08T06:20:20.778Z,23.13
2018-01-08T06:22:49.112Z,48.20
2018-01-08T06:25:17.435Z,21.50
2018-01-08T06:27:45.787Z,33.67
2018-01-08T06:30:14.095Z,25.53
2018-01-08T06:32:42.441Z,31.63
2018-01-08T06:35:10.761Z,29.03
2018-01-08T06:37:39.076Z,28.07
2018-01-08T06:40:07.421Z,28.83
2018-01-08T06:42:36.522Z,20.87
2018-01-08T06:45:04.866Z,29.73
2018-01-08T06:47:33.194Z,22.60
2018-01-08T06:50:02.298Z,23.47
2018-01-08T06:52:31.380Z,23.83
2018-01-08T06:55:00.477Z,31.60
2018-01-08T06:57:28.792Z,24.03
2018-01-08T06:59:57.126Z,22.70
2018-01-08T07:02:25.433Z,30.00
2018-01-08T07:04:53.774Z,30.57
2018-01-08T07:07:22.113Z,51.10
2018-01-08T07:09:50.492Z,39.10
2018-01-08T07:12:18.810Z,21.97
2018-01-08T07:14:47.133Z,19.30
2018-01-08T07:17:15.502Z,15.87
2018-01-08T07:19:44.598Z,16.73
2018-01-08T07:22:13.697Z,24.97
2018-01-08T07:24:42.019Z,18.43
2018-01-08T07:27:10.377Z,25.07
2018-01-08T07:29:38.687Z,20.70
2018-01-08T07:32:07.016Z,21.17
2018-01-08T07:34:35.338Z,20.03
2018-01-08T07:37:03.688Z,22.60
2018-01-08T07:39:32.013Z,24.10
2018-01-08T07:42:00.348Z,23.93
2018-01-08T07:44:28.656Z,21.40
2018-01-08T07:46:57.017Z,27.07
2018-01-08T07:49:25.334Z,19.30
2018-01-08T07:51:53.677Z,22.90
2018-01-08T07:54:21.994Z,14.57
2018-01-08T07:56:50.295Z,27.00
2018-01-08T07:59:18.638Z,24.73
2018-01-08T08:01:46.958Z,18.10
2018-01-08T08:04:15.291Z,20.37
2018-01-08T08:06:43.609Z,22.13
2018-01-08T08:09:12.713Z,24.80
2018-01-08T08:11:41.044Z,16.93
2018-01-08T08:14:09.385Z,18.10
2018-01-08T08:16:37.709Z,21.50
2018-01-08T08:19:06.041Z,21.10
2018-01-08T08:21:34.356Z,23.20
2018-01-08T08:24:02.698Z,22.00
2018-01-08T08:26:31.005Z,18.80
2018-01-08T08:28:59.346Z,26.80
2018-01-08T08:31:27.661Z,24.30
2018-01-08T08:33:55.986Z,24.20
2018-01-08T08:36:25.082Z,13.30
2018-01-08T08:38:54.155Z,25.93
2018-01-08T08:41:22.486Z,25.70
2018-01-08T08:43:50.807Z,25.90
2018-01-08T08:46:19.145Z,23.43
2018-01-08T08:48:47.465Z,27.20
2018-01-08T08:51:15.815Z,25.10
2018-01-08T08:53:44.120Z,28.60
2018-01-08T08:56:12.461Z,21.13
2018-01-08T08:58:40.776Z,26.83
2018-01-08T09:01:09.100Z,21.27
2018-01-08T09:03:37.487Z,21.43
2018-01-08T09:06:06.560Z,19.33
2018-01-08T09:08:35.640Z,23.30
2018-01-08T09:11:03.962Z,21.23
2018-01-08T09:13:32.301Z,30.83
2018-01-08T09:16:00.613Z,26.37
2018-01-08T09:18:28.945Z,21.50
2018-01-08T09:20:57.256Z,32.13
2018-01-08T09:23:25.584Z,25.77
2018-01-08T09:25:53.904Z,27.13
2018-01-08T09:28:23.100Z,24.27
2018-01-08T09:30:52.184Z,29.07
2018-01-08T09:33:20.521Z,28.07
2018-01-08T09:35:48.832Z,25.20
2018-01-08T09:38:17.178Z,25.60
2018-01-08T09:40:45.516Z,25.40
2018-01-08T09:43:14.625Z,28.43
2018-01-08T09:45:42.938Z,24.97
2018-01-08T09:48:11.254Z,28.90
2018-01-08T09:50:39.588Z,19.53
2018-01-08T09:53:07.900Z,23.93
2018-01-08T09:55:36.235Z,27.57
2018-01-08T09:58:04.582Z,27.43
2018-01-08T10:00:33.692Z,27.67
2018-01-08T10:03:13.644Z,17.73
2018-01-08T10:05:59.801Z,35.10
2018-01-08T10:08:46.036Z,23.53
2018-01-08T10:11:32.226Z,29.63
2018-01-08T10:14:18.444Z,25.93
2018-01-08T10:17:04.483Z,24.73
2018-01-08T10:20:00.261Z,20.10
2018-01-08T10:22:29.117Z,23.00
2018-01-08T10:24:58.200Z,28.13
2018-01-08T10:27:26.571Z,26.27
2018-01-08T10:29:54.883Z,26.00
2018-01-08T10:32:23.982Z,23.43
2018-01-08T10:34:53.065Z,22.23
2018-01-08T10:37:22.258Z,25.97
2018-01-08T10:39:50.586Z,22.23
2018-01-08T10:42:24.453Z,21.17
2018-01-08T10:44:58.385Z,22.97
2018-01-08T10:47:32.264Z,22.47
2018-01-08T10:50:06.875Z,21.90
2018-01-08T10:52:35.221Z,22.20
2018-01-08T10:55:04.329Z,29.30
2018-01-08T10:57:32.658Z,24.97
2018-01-08T11:00:01.762Z,25.20
2018-01-08T11:02:35.705Z,25.60
2018-01-08T11:05:04.036Z,28.67
2018-01-08T11:07:33.163Z,22.77
2018-01-08T11:10:02.247Z,28.20
2018-01-08T11:12:30.565Z,18.47
2018-01-08T11:14:58.903Z,22.10
2018-01-08T11:17:27.228Z,19.63
2018-01-08T11:19:55.568Z,18.20
2018-01-08T11:22:23.889Z,18.93
2018-01-08T11:24:52.246Z,25.77
2018-01-08T11:27:20.568Z,24.23
2018-01-08T11:29:48.905Z,25.40
2018-01-08T11:32:17.214Z,31.43
2018-01-08T11:34:46.308Z,26.43
2018-01-08T11:37:14.656Z,24.37
2018-01-08T11:39:43.001Z,22.07
2018-01-08T11:42:11.352Z,18.83
2018-01-08T11:44:39.687Z,23.83
2018-01-08T11:47:08.074Z,21.97
2018-01-08T11:49:36.421Z,28.80
2018-01-08T11:52:04.787Z,29.27
2018-01-08T11:54:33.108Z,23.77
2018-01-08T11:57:01.448Z,33.20
2018-01-08T11:59:30.538Z,26.00
2018-01-08T12:01:59.675Z,26.40
2018-01-08T12:04:27.992Z,23.20
2018-01-08T12:06:56.334Z,33.40
2018-01-08T12:09:24.693Z,30.93
2018-01-08T12:11:53.118Z,20.93
2018-01-08T12:14:21.474Z,26.27
2018-01-08T12:16:49.808Z,27.70
2018-01-08T12:19:18.937Z,18.20
2018-01-08T12:21:47.263Z,23.33
2018-01-08T12:24:15.628Z,20.63
2018-01-08T12:26:43.947Z,27.67
2018-01-08T12:29:13.053Z,18.87
2018-01-08T12:31:41.372Z,22.73
2018-01-08T12:34:09.706Z,22.30
2018-01-08T12:36:38.816Z,25.37
2018-01-08T12:39:07.160Z,29.17
2018-01-08T12:41:35.473Z,26.33
2018-01-08T12:44:03.793Z,16.57
2018-01-08T12:46:32.148Z,21.37
2018-01-08T12:49:01.238Z,24.57
2018-01-08T12:51:29.580Z,24.17
2018-01-08T12:53:58.688Z,23.93
2018-01-08T12:56:27.030Z,26.83
2018-01-08T12:58:55.341Z,22.67
2018-01-08T13:01:23.680Z,17.70
2018-01-08T13:03:52.013Z,25.33
2018-01-08T13:06:20.352Z,22.63
2018-01-08T13:08:48.666Z,21.60
2018-01-08T13:11:17.028Z,23.83
2018-01-08T13:13:45.357Z,26.80
2018-01-08T13:16:13.671Z,24.87
2018-01-08T13:18:42.033Z,20.60
2018-01-08T13:21:10.380Z,28.83
2018-01-08T13:23:38.733Z,24.70
2018-01-08T13:26:07.067Z,23.80
2018-01-08T13:28:35.396Z,22.07
2018-01-08T13:31:03.714Z,20.60
2018-01-08T13:33:32.059Z,19.03
2018-01-08T13:36:00.408Z,20.57
2018-01-08T13:38:29.512Z,14.73
2018-01-08T13:40:57.829Z,19.50
2018-01-08T13:43:26.190Z,16.23
2018-01-08T13:45:54.547Z,25.70
2018-01-08T13:48:23.670Z,19.90
2018-01-08T13:50:52.046Z,25.23
2018-01-08T13:53:21.148Z,20.77
2018-01-08T13:55:49.569Z,21.13
2018-01-08T13:58:17.905Z,23.87
2018-01-08T14:00:46.252Z,21.70
2018-01-08T14:03:15.352Z,17.23
2018-01-08T14:05:44.474Z,18.17
2018-01-08T14:08:12.804Z,8.60
2018-01-08T14:10:41.162Z,25.43
2018-01-08T14:13:09.486Z,14.93
2018-01-08T14:15:38.602Z,18.33
2018-01-08T14:18:07.693Z,25.50
2018-01-08T14:20:36.037Z,17.80
2018-01-08T14:23:04.354Z,17.87
2018-01-08T14:25:32.708Z,12.60
2018-01-08T14:28:01.026Z,18.47
2018-01-08T14:30:29.382Z,16.20
2018-01-08T14:32:58.448Z,21.07
2018-01-08T14:35:26.769Z,20.97
2018-01-08T14:37:55.112Z,23.37
2018-01-08T14:40:23.465Z,30.80
2018-01-08T14:42:51.806Z,24.60
2018-01-08T14:45:20.153Z,18.90
2018-01-08T14:47:48.488Z,24.30
2018-01-08T14:50:16.820Z,18.20
2018-01-08T14:52:45.945Z,23.73
2018-01-08T14:55:14.258Z,18.50
2018-01-08T14:57:42.602Z,31.23
2018-01-08T15:00:10.927Z,18.57
2018-01-08T15:02:39.292Z,22.30
2018-01-08T15:05:07.622Z,19.97
2018-01-08T15:07:36.707Z,20.90
2018-01-08T15:10:05.105Z,15.77
2018-01-08T15:12:33.443Z,15.67
2018-01-08T15:15:01.806Z,19.80
2018-01-08T15:17:30.136Z,23.17
2018-01-08T15:19:59.245Z,16.07
2018-01-08T15:22:27.569Z,22.63
2018-01-08T15:24:55.914Z,18.43
2018-01-08T15:27:24.225Z,23.60
2018-01-08T15:29:52.551Z,17.20
2018-01-08T15:32:21.622Z,18.93
2018-01-08T15:34:49.964Z,21.27
2018-01-08T15:37:18.279Z,14.93
2018-01-08T15:39:48.117Z,19.00
2018-01-08T15:42:16.444Z,13.73
2018-01-08T15:44:44.778Z,19.30
2018-01-08T15:47:13.849Z,21.53
2018-01-08T15:49:42.184Z,22.13
2018-01-08T15:52:10.504Z,12.50
2018-01-08T15:54:38.824Z,16.57
2018-01-08T15:57:07.165Z,19.83
2018-01-08T15:59:35.476Z,17.23
2018-01-08T16:02:03.809Z,24.13
2018-01-08T16:04:32.128Z,17.83
2018-01-08T16:07:01.234Z,21.00
2018-01-08T16:09:29.554Z,22.67
2018-01-08T16:11:57.914Z,22.30
2018-01-08T16:14:26.221Z,22.27
2018-01-08T16:16:54.608Z,21.67
2018-01-08T16:19:22.913Z,17.93
2018-01-08T16:21:52.025Z,19.47
2018-01-08T16:24:20.345Z,17.20
2018-01-08T16:26:48.677Z,15.33
2018-01-08T16:29:17.002Z,18.27
2018-01-08T16:31:45.338Z,23.20
2018-01-08T16:34:13.654Z,26.67
2018-01-08T16:36:41.982Z,15.43
2018-01-08T16:39:11.057Z,16.50
2018-01-08T16:41:39.404Z,22.20
2018-01-08T16:44:07.719Z,19.50
2018-01-08T16:46:36.027Z,19.83
2018-01-08T16:49:04.413Z,19.80
2018-01-08T16:51:33.452Z,20.47
2018-01-08T16:54:01.788Z,20.00
2018-01-08T16:56:30.145Z,16.50
2018-01-08T16:58:59.242Z,19.47
2018-01-08T17:01:27.569Z,13.23
2018-01-08T17:03:55.898Z,13.10
2018-01-08T17:06:24.981Z,16.93
2018-01-08T17:08:54.083Z,17.37
2018-01-08T17:11:23.161Z,12.60
2018-01-08T17:13:51.530Z,18.97
2018-01-08T17:16:19.845Z,17.37
2018-01-08T17:18:48.196Z,13.40
2018-01-08T17:21:16.554Z,18.00
2018-01-08T17:23:44.864Z,9.20
2018-01-08T17:26:13.227Z,20.20
2018-01-08T17:28:41.521Z,17.53
2018-01-08T17:31:09.901Z,15.50
2018-01-08T17:33:38.220Z,18.03
2018-01-08T17:36:06.593Z,18.77
2018-01-08T17:38:34.912Z,19.23
2018-01-08T17:41:03.297Z,21.10
2018-01-08T17:43:31.650Z,19.83
2018-01-08T17:46:00.019Z,16.67
2018-01-08T17:48:28.343Z,19.20
2018-01-08T17:50:56.688Z,13.57
2018-01-08T17:53:24.996Z,13.87
2018-01-08T17:55:53.322Z,20.33
2018-01-08T17:58:21.632Z,26.83
2018-01-08T18:00:49.972Z,16.93
2018-01-08T18:03:18.287Z,17.93
2018-01-08T18:05:46.671Z,13.00
2018-01-08T18:08:15.027Z,20.87
2018-01-08T18:10:43.332Z,20.47
2018-01-08T18:13:11.706Z,19.20
2018-01-08T18:15:40.021Z,22.60
2018-01-08T18:18:09.164Z,16.77
2018-01-08T18:20:54.383Z,16.17
2018-01-08T18:23:22.698Z,17.87
2018-01-08T18:25:51.045Z,18.23
2018-01-08T18:28:20.135Z,12.23
2018-01-08T18:30:48.442Z,13.30
2018-01-08T18:33:17.610Z,24.80
2018-01-08T18:35:45.913Z,14.20
2018-01-08T18:38:14.247Z,13.67
2018-01-08T18:40:42.595Z,15.40
2018-01-08T18:43:10.995Z,15.90
2018-01-08T18:45:40.056Z,18.40
2018-01-08T18:48:08.388Z,15.20
2018-01-08T18:50:36.689Z,16.47
2018-01-08T18:53:05.070Z,20.90
2018-01-08T18:55:33.414Z,10.37
2018-01-08T18:58:01.714Z,14.13
2018-01-08T19:00:30.048Z,17.83
2018-01-08T19:02:58.402Z,17.00
2018-01-08T19:05:27.553Z,12.73
2018-01-08T19:07:55.881Z,14.47
2018-01-08T19:10:24.995Z,15.67
2018-01-08T19:12:53.299Z,12.20
2018-01-08T19:15:21.713Z,8.73
2018-01-08T19:17:50.048Z,16.03
2018-01-08T19:20:18.389Z,11.00
2018-01-08T19:22:47.506Z,10.20
2018-01-08T19:25:15.856Z,11.30
2018-01-08T19:27:44.999Z,14.90
2018-01-08T19:30:13.360Z,8.67
2018-01-08T19:32:41.772Z,10.20
2018-01-08T19:35:10.089Z,9.50
2018-01-08T19:37:38.454Z,10.17
2018-01-08T19:40:06.842Z,10.53
2018-01-08T19:42:35.213Z,12.73
2018-01-08T19:45:03.573Z,10.43
2018-01-08T19:47:31.939Z,10.70
2018-01-08T19:50:00.336Z,9.27
2018-01-08T19:52:28.718Z,7.63
2018-01-08T19:54:57.080Z,10.67
2018-01-08T19:57:25.443Z,9.77
2018-01-08T19:59:53.804Z,9.43
2018-01-08T20:02:22.959Z,11.53
2018-01-08T20:04:51.313Z,8.43
2018-01-08T20:07:19.623Z,15.83
2018-01-08T20:09:48.021Z,12.80
2018-01-08T20:12:17.085Z,8.97
2018-01-08T20:14:45.463Z,12.27
2018-01-08T20:17:13.826Z,13.10
2018-01-08T20:19:42.213Z,8.70
2018-01-08T20:22:10.560Z,8.77
2018-01-08T20:24:40.848Z,8.53
2018-01-08T20:27:09.198Z,9.70
2018-01-08T20:29:37.587Z,10.03
2018-01-08T20:32:05.943Z,12.53
2018-01-08T20:34:34.312Z,12.70
2018-01-08T20:37:02.660Z,18.23
2018-01-08T20:39:31.833Z,13.60
2018-01-08T20:42:00.192Z,9.20
2018-01-08T20:44:28.562Z,11.37
2018-01-08T20:46:56.889Z,12.73
2018-01-08T20:49:25.267Z,9.50
2018-01-08T20:51:53.655Z,11.10
2018-01-08T20:54:22.778Z,9.40
2018-01-08T20:56:51.143Z,7.73
2018-01-08T20:59:20.251Z,7.00
2018-01-08T21:01:48.629Z,10.33
2018-01-08T21:04:17.005Z,11.50
2018-01-08T21:06:45.378Z,9.53
2018-01-08T21:09:13.735Z,12.33
2018-01-08T21:11:42.105Z,13.00
2018-01-08T21:14:10.461Z,12.23
2018-01-08T21:16:38.836Z,11.43
2018-01-08T21:19:07.200Z,12.20
2018-01-08T21:21:35.576Z,11.27
2018-01-08T21:24:03.923Z,10.83
2018-01-08T21:26:33.074Z,11.97
2018-01-08T21:29:01.419Z,18.30
2018-01-08T21:31:29.785Z,13.03
2018-01-08T21:33:58.918Z,9.47
2018-01-08T21:36:27.260Z,11.30
2018-01-08T21:38:55.652Z,12.40
2018-01-08T21:41:24.026Z,13.70
2018-01-08T21:43:53.169Z,10.47
2018-01-08T21:46:21.535Z,10.50
2018-01-08T21:48:49.926Z,11.30
2018-01-08T21:51:18.276Z,9.17
2018-01-08T21:53:46.644Z,7.73
2018-01-08T21:56:15.762Z,9.80
2018-01-08T21:58:44.131Z,13.43
2018-01-08T22:01:12.497Z,13.40
2018-01-08T22:03:41.642Z,12.30
2018-01-08T22:06:10.007Z,12.10
2018-01-08T22:08:38.421Z,13.67
2018-01-08T22:11:06.724Z,13.73
2018-01-08T22:13:35.854Z,13.00
2018-01-08T22:16:04.266Z,9.50
2018-01-08T22:18:32.615Z,15.17
2018-01-08T22:21:00.993Z,11.87
2018-01-08T22:23:29.369Z,11.80
2018-01-08T22:25:57.705Z,12.93
2018-01-08T22:28:29.981Z,16.00
2018-01-08T22:30:59.123Z,14.37
2018-01-08T22:33:27.490Z,9.73
2018-01-08T22:35:55.880Z,12.93
2018-01-08T22:38:24.906Z,13.23
2018-01-08T22:40:53.294Z,11.30
2018-01-08T22:43:21.640Z,13.37
2018-01-08T22:45:50.085Z,12.70
2018-01-08T22:48:20.203Z,15.90
2018-01-08T22:50:49.290Z,15.80
2018-01-08T22:53:17.666Z,12.77
2018-01-08T22:55:46.017Z,13.37
2018-01-08T22:58:15.246Z,17.23
2018-01-08T23:00:43.615Z,16.53
2018-01-08T23:03:11.996Z,13.80
2018-01-08T23:05:40.359Z,15.57
2018-01-08T23:08:08.735Z,15.90
2018-01-08T23:10:37.089Z,12.53
2018-01-08T23:13:05.463Z,20.50
2018-01-08T23:15:33.816Z,12.30
2018-01-08T23:18:02.943Z,15.03
2018-01-08T23:20:31.300Z,20.10
2018-01-08T23:23:00.446Z,15.13
2018-01-08T23:25:28.784Z,9.30
2018-01-08T23:27:57.170Z,13.10
2018-01-08T23:30:25.515Z,12.73
2018-01-08T23:32:53.891Z,16.03
2018-01-08T23:35:22.266Z,11.70
2018-01-08T23:37:50.630Z,14.67
2018-01-08T23:40:18.983Z,16.63
2018-01-08T23:42:47.329Z,15.40
2018-01-08T23:45:16.482Z,14.30
2018-01-08T23:47:44.847Z,11.93
2018-01-08T23:50:13.172Z,11.43
2018-01-08T23:52:42.285Z,9.83
2018-01-08T23:55:11.503Z,12.20
2018-01-08T23:57:39.858Z,13.57
